sensor_id;sensor_type;location;lat;lon;timestamp;pressure;altitude;pressure_sealevel;temperature;humidity
60871;BME280;46714;50.118;14.462;2022-12-24T00:01:12;97798.84;;;5.64;100.00
60871;BME280;46714;50.118;14.462;2022-12-24T00:03:37;97797.16;;;5.63;100.00
60871;BME280;46714;50.118;14.462;2022-12-24T00:06:03;97800.09;;;5.61;100.00
60871;BME280;46714;50.118;14.462;2022-12-24T00:08:29;97797.81;;;5.58;100.00
60871;BME280;46714;50.118;14.462;2022-12-24T00:10:55;97810.94;;;5.55;100.00
60871;BME280;46714;50.118;14.462;2022-12-24T00:13:20;97810.72;;;5.50;100.00
60871;BME280;46714;50.118;14.462;2022-12-24T00:15:45;97805.78;;;5.46;100.00
60871;BME280;46714;50.118;14.462;2022-12-24T00:18:11;97811.63;;;5.43;100.00
60871;BME280;46714;50.118;14.462;2022-12-24T00:20:37;97814.72;;;5.40;100.00
60871;BME280;46714;50.118;14.462;2022-12-24T00:23:02;97820.56;;;5.37;100.00
60871;BME280;46714;50.118;14.462;2022-12-24T00:25:28;97816.63;;;5.33;100.00
60871;BME280;46714;50.118;14.462;2022-12-24T00:27:53;97806.88;;;5.32;100.00
60871;BME280;46714;50.118;14.462;2022-12-24T00:30:18;97818.13;;;5.29;100.00
60871;BME280;46714;50.118;14.462;2022-12-24T00:32:43;97819.34;;;5.27;100.00
60871;BME280;46714;50.118;14.462;2022-12-24T00:35:09;97814.19;;;5.25;100.00
60871;BME280;46714;50.118;14.462;2022-12-24T00:37:34;97823.94;;;5.26;100.00
60871;BME280;46714;50.118;14.462;2022-12-24T00:39:59;97824.53;;;5.28;100.00
60871;BME280;46714;50.118;14.462;2022-12-24T00:42:25;97829.13;;;5.28;100.00
60871;BME280;46714;50.118;14.462;2022-12-24T00:44:50;97838.66;;;5.30;100.00
60871;BME280;46714;50.118;14.462;2022-12-24T00:47:16;97830.97;;;5.34;100.00
60871;BME280;46714;50.118;14.462;2022-12-24T00:49:41;97833.44;;;5.35;100.00
60871;BME280;46714;50.118;14.462;2022-12-24T00:52:06;97836.75;;;5.37;100.00
60871;BME280;46714;50.118;14.462;2022-12-24T00:54:32;97842.75;;;5.39;100.00
60871;BME280;46714;50.118;14.462;2022-12-24T00:56:57;97842.31;;;5.42;100.00
60871;BME280;46714;50.118;14.462;2022-12-24T00:59:22;97837.53;;;5.44;100.00
60871;BME280;46714;50.118;14.462;2022-12-24T01:01:48;97838.16;;;5.46;100.00
60871;BME280;46714;50.118;14.462;2022-12-24T01:04:13;97849.38;;;5.50;100.00
60871;BME280;46714;50.118;14.462;2022-12-24T01:06:57;97854.53;;;5.52;100.00
60871;BME280;46714;50.118;14.462;2022-12-24T01:09:22;97853.50;;;5.53;100.00
60871;BME280;46714;50.118;14.462;2022-12-24T01:11:47;97851.81;;;5.52;100.00
60871;BME280;46714;50.118;14.462;2022-12-24T01:14:13;97859.72;;;5.53;100.00
60871;BME280;46714;50.118;14.462;2022-12-24T01:16:38;97869.88;;;5.58;100.00
60871;BME280;46714;50.118;14.462;2022-12-24T01:19:04;97872.75;;;5.63;100.00
60871;BME280;46714;50.118;14.462;2022-12-24T01:21:29;97878.34;;;5.68;100.00
60871;BME280;46714;50.118;14.462;2022-12-24T01:23:54;97877.88;;;5.78;100.00
60871;BME280;46714;50.118;14.462;2022-12-24T01:26:20;97877.38;;;6.01;100.00
60871;BME280;46714;50.118;14.462;2022-12-24T01:28:45;97873.88;;;6.25;100.00
60871;BME280;46714;50.118;14.462;2022-12-24T01:31:15;97878.56;;;6.37;100.00
60871;BME280;46714;50.118;14.462;2022-12-24T01:33:42;97895.59;;;6.69;100.00
60871;BME280;46714;50.118;14.462;2022-12-24T01:36:08;97893.75;;;6.88;100.00
60871;BME280;46714;50.118;14.462;2022-12-24T01:38:35;97896.16;;;6.96;100.00
60871;BME280;46714;50.118;14.462;2022-12-24T01:41:01;97908.19;;;7.00;100.00
60871;BME280;46714;50.118;14.462;2022-12-24T01:43:45;97902.72;;;7.07;100.00
60871;BME280;46714;50.118;14.462;2022-12-24T01:46:24;97907.00;;;7.14;100.00
60871;BME280;46714;50.118;14.462;2022-12-24T01:48:55;97915.72;;;7.17;100.00
60871;BME280;46714;50.118;14.462;2022-12-24T01:51:33;97913.63;;;7.19;100.00
60871;BME280;46714;50.118;14.462;2022-12-24T01:54:18;97923.63;;;7.18;100.00
60871;BME280;46714;50.118;14.462;2022-12-24T01:56:52;97921.66;;;7.25;100.00
60871;BME280;46714;50.118;14.462;2022-12-24T01:59:26;97924.69;;;7.36;100.00
60871;BME280;46714;50.118;14.462;2022-12-24T02:01:52;97930.63;;;7.44;100.00
60871;BME280;46714;50.118;14.462;2022-12-24T02:07:26;97927.69;;;7.64;100.00
60871;BME280;46714;50.118;14.462;2022-12-24T02:09:53;97928.22;;;7.73;100.00
60871;BME280;46714;50.118;14.462;2022-12-24T02:12:21;97927.69;;;7.83;100.00
60871;BME280;46714;50.118;14.462;2022-12-24T02:14:48;97923.00;;;7.90;100.00
60871;BME280;46714;50.118;14.462;2022-12-24T02:31:01;97956.88;;;7.81;100.00
60871;BME280;46714;50.118;14.462;2022-12-24T02:33:41;97959.66;;;7.74;100.00
60871;BME280;46714;50.118;14.462;2022-12-24T02:36:18;97960.81;;;7.66;100.00
60871;BME280;46714;50.118;14.462;2022-12-24T02:41:20;97956.53;;;7.59;100.00
60871;BME280;46714;50.118;14.462;2022-12-24T02:43:50;97966.16;;;7.54;100.00
60871;BME280;46714;50.118;14.462;2022-12-24T02:46:18;97963.28;;;7.49;100.00
60871;BME280;46714;50.118;14.462;2022-12-24T02:48:48;97959.97;;;7.47;100.00
60871;BME280;46714;50.118;14.462;2022-12-24T02:51:14;97969.75;;;7.48;100.00
60871;BME280;46714;50.118;14.462;2022-12-24T02:53:40;97972.69;;;7.47;100.00
60871;BME280;46714;50.118;14.462;2022-12-24T02:56:15;97978.31;;;7.45;100.00
60871;BME280;46714;50.118;14.462;2022-12-24T03:07:34;97986.59;;;7.50;100.00
60871;BME280;46714;50.118;14.462;2022-12-24T03:12:56;97983.72;;;7.45;100.00
60871;BME280;46714;50.118;14.462;2022-12-24T03:15:26;97987.72;;;7.43;100.00
60871;BME280;46714;50.118;14.462;2022-12-24T03:17:55;97985.63;;;7.45;100.00
60871;BME280;46714;50.118;14.462;2022-12-24T03:20:24;98000.94;;;7.51;100.00
60871;BME280;46714;50.118;14.462;2022-12-24T03:22:55;97995.94;;;7.54;100.00
60871;BME280;46714;50.118;14.462;2022-12-24T03:25:20;98011.09;;;7.55;100.00
60871;BME280;46714;50.118;14.462;2022-12-24T03:27:49;98013.59;;;7.57;100.00
60871;BME280;46714;50.118;14.462;2022-12-24T03:30:16;98000.88;;;7.58;100.00
60871;BME280;46714;50.118;14.462;2022-12-24T03:32:42;98000.66;;;7.59;100.00
60871;BME280;46714;50.118;14.462;2022-12-24T03:35:08;98003.16;;;7.61;100.00
60871;BME280;46714;50.118;14.462;2022-12-24T03:37:35;98004.59;;;7.63;100.00
60871;BME280;46714;50.118;14.462;2022-12-24T03:40:01;98012.47;;;7.65;100.00
60871;BME280;46714;50.118;14.462;2022-12-24T03:42:26;98008.72;;;7.66;100.00
60871;BME280;46714;50.118;14.462;2022-12-24T03:44:51;98013.25;;;7.72;100.00
60871;BME280;46714;50.118;14.462;2022-12-24T03:47:17;98018.44;;;7.73;100.00
60871;BME280;46714;50.118;14.462;2022-12-24T03:49:42;98017.41;;;7.74;100.00
60871;BME280;46714;50.118;14.462;2022-12-24T03:52:07;98022.56;;;7.76;100.00
60871;BME280;46714;50.118;14.462;2022-12-24T03:54:33;98014.22;;;7.78;100.00
60871;BME280;46714;50.118;14.462;2022-12-24T03:56:58;98015.66;;;7.80;100.00
60871;BME280;46714;50.118;14.462;2022-12-24T03:59:23;98025.66;;;7.80;100.00
60871;BME280;46714;50.118;14.462;2022-12-24T04:01:49;98025.44;;;7.81;100.00
60871;BME280;46714;50.118;14.462;2022-12-24T04:04:14;98029.81;;;7.82;100.00
60871;BME280;46714;50.118;14.462;2022-12-24T04:06:40;98040.19;;;7.85;100.00
60871;BME280;46714;50.118;14.462;2022-12-24T04:09:05;98045.59;;;7.85;100.00
60871;BME280;46714;50.118;14.462;2022-12-24T04:11:31;98056.91;;;7.82;100.00
60871;BME280;46714;50.118;14.462;2022-12-24T04:13:57;98049.97;;;7.86;100.00
60871;BME280;46714;50.118;14.462;2022-12-24T04:16:22;98057.44;;;7.91;100.00
60871;BME280;46714;50.118;14.462;2022-12-24T04:18:48;98065.78;;;7.89;100.00
60871;BME280;46714;50.118;14.462;2022-12-24T04:21:13;98058.47;;;7.90;100.00
60871;BME280;46714;50.118;14.462;2022-12-24T04:23:39;98070.97;;;7.91;100.00
60871;BME280;46714;50.118;14.462;2022-12-24T04:26:06;98062.59;;;7.92;100.00
60871;BME280;46714;50.118;14.462;2022-12-24T04:28:33;98074.06;;;7.94;100.00
60871;BME280;46714;50.118;14.462;2022-12-24T04:31:00;98065.56;;;7.91;100.00
60871;BME280;46714;50.118;14.462;2022-12-24T04:33:27;98073.69;;;7.91;100.00
60871;BME280;46714;50.118;14.462;2022-12-24T04:35:53;98082.03;;;7.89;100.00
60871;BME280;46714;50.118;14.462;2022-12-24T04:38:21;98065.56;;;7.91;100.00
60871;BME280;46714;50.118;14.462;2022-12-24T04:40:46;98067.22;;;7.92;100.00
60871;BME280;46714;50.118;14.462;2022-12-24T04:43:12;98081.00;;;7.90;100.00
60871;BME280;46714;50.118;14.462;2022-12-24T04:45:37;98096.66;;;7.88;100.00
60871;BME280;46714;50.118;14.462;2022-12-24T04:48:03;98092.25;;;7.87;100.00
60871;BME280;46714;50.118;14.462;2022-12-24T04:50:28;98098.13;;;7.84;100.00
60871;BME280;46714;50.118;14.462;2022-12-24T04:52:54;98095.78;;;7.88;100.00
60871;BME280;46714;50.118;14.462;2022-12-24T04:55:19;98103.09;;;7.87;100.00
60871;BME280;46714;50.118;14.462;2022-12-24T04:57:44;98101.88;;;7.83;100.00
60871;BME280;46714;50.118;14.462;2022-12-24T05:00:10;98108.97;;;7.84;100.00
60871;BME280;46714;50.118;14.462;2022-12-24T05:02:36;98115.22;;;7.85;100.00
60871;BME280;46714;50.118;14.462;2022-12-24T05:05:01;98117.25;;;7.89;100.00
60871;BME280;46714;50.118;14.462;2022-12-24T05:07:27;98133.44;;;7.96;100.00
60871;BME280;46714;50.118;14.462;2022-12-24T05:09:52;98126.16;;;7.96;100.00
60871;BME280;46714;50.118;14.462;2022-12-24T05:12:18;98132.78;;;8.01;100.00
60871;BME280;46714;50.118;14.462;2022-12-24T05:14:43;98141.31;;;8.04;100.00
60871;BME280;46714;50.118;14.462;2022-12-24T05:17:09;98140.63;;;8.09;100.00
60871;BME280;46714;50.118;14.462;2022-12-24T05:19:34;98141.81;;;8.13;100.00
60871;BME280;46714;50.118;14.462;2022-12-24T05:21:59;98134.97;;;8.10;100.00
60871;BME280;46714;50.118;14.462;2022-12-24T05:24:43;98141.59;;;8.14;100.00
60871;BME280;46714;50.118;14.462;2022-12-24T05:27:27;98143.50;;;8.14;100.00
60871;BME280;46714;50.118;14.462;2022-12-24T05:29:53;98151.84;;;8.12;99.89
60871;BME280;46714;50.118;14.462;2022-12-24T05:32:19;98138.69;;;8.16;97.20
60871;BME280;46714;50.118;14.462;2022-12-24T05:34:44;98149.06;;;8.19;97.35
60871;BME280;46714;50.118;14.462;2022-12-24T05:37:09;98157.19;;;8.19;96.27
60871;BME280;46714;50.118;14.462;2022-12-24T05:39:35;98147.41;;;8.18;95.70
60871;BME280;46714;50.118;14.462;2022-12-24T05:42:00;98149.88;;;8.19;93.82
60871;BME280;46714;50.118;14.462;2022-12-24T05:44:25;98155.09;;;8.21;94.62
60871;BME280;46714;50.118;14.462;2022-12-24T05:46:51;98140.94;;;8.19;92.53
60871;BME280;46714;50.118;14.462;2022-12-24T05:49:16;98147.41;;;8.18;93.91
60871;BME280;46714;50.118;14.462;2022-12-24T05:51:41;98142.66;;;8.13;92.06
60871;BME280;46714;50.118;14.462;2022-12-24T05:54:07;98148.75;;;8.09;93.60
60871;BME280;46714;50.118;14.462;2022-12-24T05:56:33;98144.03;;;8.04;95.73
60871;BME280;46714;50.118;14.462;2022-12-24T05:58:58;98161.38;;;7.96;94.34
60871;BME280;46714;50.118;14.462;2022-12-24T06:01:24;98163.72;;;7.93;94.64
60871;BME280;46714;50.118;14.462;2022-12-24T06:03:50;98166.03;;;7.89;92.44
60871;BME280;46714;50.118;14.462;2022-12-24T06:06:17;98172.50;;;7.88;92.00
60871;BME280;46714;50.118;14.462;2022-12-24T06:08:46;98166.69;;;7.85;92.37
60871;BME280;46714;50.118;14.462;2022-12-24T06:11:13;98163.78;;;7.86;92.20
60871;BME280;46714;50.118;14.462;2022-12-24T06:13:40;98168.59;;;7.84;90.51
60871;BME280;46714;50.118;14.462;2022-12-24T06:16:07;98173.78;;;7.86;90.22
60871;BME280;46714;50.118;14.462;2022-12-24T06:18:35;98175.66;;;7.85;89.98
60871;BME280;46714;50.118;14.462;2022-12-24T06:21:01;98177.75;;;7.83;92.60
60871;BME280;46714;50.118;14.462;2022-12-24T06:23:28;98183.63;;;7.80;90.77
60871;BME280;46714;50.118;14.462;2022-12-24T06:25:57;98192.34;;;7.82;89.85
60871;BME280;46714;50.118;14.462;2022-12-24T06:28:25;98195.88;;;7.83;88.37
60871;BME280;46714;50.118;14.462;2022-12-24T06:30:51;98195.84;;;7.89;91.15
60871;BME280;46714;50.118;14.462;2022-12-24T06:33:16;98206.88;;;7.88;88.25
60871;BME280;46714;50.118;14.462;2022-12-24T06:35:45;98209.84;;;7.86;91.63
60871;BME280;46714;50.118;14.462;2022-12-24T06:38:12;98205.44;;;7.85;89.25
60871;BME280;46714;50.118;14.462;2022-12-24T06:40:39;98212.09;;;7.89;88.81
60871;BME280;46714;50.118;14.462;2022-12-24T06:43:05;98209.84;;;7.86;86.77
60871;BME280;46714;50.118;14.462;2022-12-24T06:45:30;98223.13;;;7.88;87.28
60871;BME280;46714;50.118;14.462;2022-12-24T06:47:56;98228.56;;;7.88;87.34
60871;BME280;46714;50.118;14.462;2022-12-24T06:50:22;98227.75;;;7.87;87.12
60871;BME280;46714;50.118;14.462;2022-12-24T06:52:47;98247.53;;;7.88;85.57
60871;BME280;46714;50.118;14.462;2022-12-24T06:55:13;98260.88;;;7.89;85.44
60871;BME280;46714;50.118;14.462;2022-12-24T06:57:38;98253.34;;;7.91;85.42
60871;BME280;46714;50.118;14.462;2022-12-24T07:00:05;98260.66;;;7.91;87.56
60871;BME280;46714;50.118;14.462;2022-12-24T07:02:31;98257.53;;;7.87;86.96
60871;BME280;46714;50.118;14.462;2022-12-24T07:04:57;98267.38;;;7.82;88.12
60871;BME280;46714;50.118;14.462;2022-12-24T07:07:22;98276.16;;;7.77;85.75
60871;BME280;46714;50.118;14.462;2022-12-24T07:09:47;98278.06;;;7.76;88.83
60871;BME280;46714;50.118;14.462;2022-12-24T07:12:13;98289.94;;;7.75;86.91
60871;BME280;46714;50.118;14.462;2022-12-24T07:14:38;98279.75;;;7.71;90.23
60871;BME280;46714;50.118;14.462;2022-12-24T07:17:04;98297.88;;;7.70;86.71
60871;BME280;46714;50.118;14.462;2022-12-24T07:19:29;98299.53;;;7.71;88.53
60871;BME280;46714;50.118;14.462;2022-12-24T07:21:54;98317.28;;;7.67;87.41
60871;BME280;46714;50.118;14.462;2022-12-24T07:24:20;98317.50;;;7.66;88.80
60871;BME280;46714;50.118;14.462;2022-12-24T07:26:45;98322.50;;;7.62;88.26
60871;BME280;46714;50.118;14.462;2022-12-24T07:29:10;98327.09;;;7.62;88.97
60871;BME280;46714;50.118;14.462;2022-12-24T07:31:36;98330.88;;;7.61;92.05
60871;BME280;46714;50.118;14.462;2022-12-24T07:34:01;98345.06;;;7.56;91.25
60871;BME280;46714;50.118;14.462;2022-12-24T07:36:27;98346.09;;;7.55;89.95
60871;BME280;46714;50.118;14.462;2022-12-24T07:38:53;98355.47;;;7.52;92.66
60871;BME280;46714;50.118;14.462;2022-12-24T07:41:18;98356.75;;;7.50;94.32
60871;BME280;46714;50.118;14.462;2022-12-24T07:43:45;98365.31;;;7.47;92.65
60871;BME280;46714;50.118;14.462;2022-12-24T07:46:10;98373.00;;;7.43;94.40
60871;BME280;46714;50.118;14.462;2022-12-24T07:48:36;98378.44;;;7.43;93.15
60871;BME280;46714;50.118;14.462;2022-12-24T07:51:02;98391.53;;;7.40;95.33
60871;BME280;46714;50.118;14.462;2022-12-24T07:53:27;98400.09;;;7.37;94.78
60871;BME280;46714;50.118;14.462;2022-12-24T07:55:53;98398.66;;;7.34;94.13
60871;BME280;46714;50.118;14.462;2022-12-24T07:58:19;98402.19;;;7.34;95.70
60871;BME280;46714;50.118;14.462;2022-12-24T08:00:44;98403.00;;;7.35;94.18
60871;BME280;46714;50.118;14.462;2022-12-24T08:03:19;98405.72;;;7.35;96.00
60871;BME280;46714;50.118;14.462;2022-12-24T08:05:45;98414.28;;;7.32;94.68
60871;BME280;46714;50.118;14.462;2022-12-24T08:08:11;98419.69;;;7.32;94.33
60871;BME280;46714;50.118;14.462;2022-12-24T08:10:38;98415.97;;;7.33;95.50
60871;BME280;46714;50.118;14.462;2022-12-24T08:13:04;98420.75;;;7.31;97.68
60871;BME280;46714;50.118;14.462;2022-12-24T08:15:30;98426.38;;;7.29;98.70
60871;BME280;46714;50.118;14.462;2022-12-24T08:17:55;98424.91;;;7.27;98.21
60871;BME280;46714;50.118;14.462;2022-12-24T08:20:21;98423.47;;;7.24;98.72
60871;BME280;46714;50.118;14.462;2022-12-24T08:22:46;98414.72;;;7.22;97.55
60871;BME280;46714;50.118;14.462;2022-12-24T08:25:12;98425.56;;;7.22;97.85
60871;BME280;46714;50.118;14.462;2022-12-24T08:27:37;98420.97;;;7.23;97.50
60871;BME280;46714;50.118;14.462;2022-12-24T08:30:03;98422.03;;;7.22;97.40
60871;BME280;46714;50.118;14.462;2022-12-24T08:32:29;98426.81;;;7.20;97.20
60871;BME280;46714;50.118;14.462;2022-12-24T08:34:54;98428.66;;;7.19;97.91
60871;BME280;46714;50.118;14.462;2022-12-24T08:37:19;98430.53;;;7.19;96.69
60871;BME280;46714;50.118;14.462;2022-12-24T08:39:45;98433.88;;;7.21;98.03
60871;BME280;46714;50.118;14.462;2022-12-24T08:42:10;98434.69;;;7.21;97.93
60871;BME280;46714;50.118;14.462;2022-12-24T08:44:36;98440.97;;;7.22;98.09
60871;BME280;46714;50.118;14.462;2022-12-24T08:47:01;98448.47;;;7.26;97.49
60871;BME280;46714;50.118;14.462;2022-12-24T08:49:26;98450.53;;;7.31;97.22
60871;BME280;46714;50.118;14.462;2022-12-24T08:51:52;98444.47;;;7.36;96.03
60871;BME280;46714;50.118;14.462;2022-12-24T08:54:17;98447.19;;;7.42;95.29
60871;BME280;46714;50.118;14.462;2022-12-24T08:56:43;98449.00;;;7.48;95.47
60871;BME280;46714;50.118;14.462;2022-12-24T08:59:09;98456.72;;;7.51;94.92
60871;BME280;46714;50.118;14.462;2022-12-24T09:01:36;98463.72;;;7.79;94.34
60871;BME280;46714;50.118;14.462;2022-12-24T09:04:02;98455.97;;;7.89;94.35
60871;BME280;46714;50.118;14.462;2022-12-24T09:06:28;98468.59;;;8.09;91.05
60871;BME280;46714;50.118;14.462;2022-12-24T09:08:53;98467.34;;;8.11;90.36
60871;BME280;46714;50.118;14.462;2022-12-24T09:11:18;98469.81;;;8.13;89.67
60871;BME280;46714;50.118;14.462;2022-12-24T09:13:44;98474.41;;;8.12;89.80
60871;BME280;46714;50.118;14.462;2022-12-24T09:16:10;98467.94;;;8.13;90.73
60871;BME280;46714;50.118;14.462;2022-12-24T09:18:36;98476.91;;;8.14;90.26
60871;BME280;46714;50.118;14.462;2022-12-24T09:21:13;98480.66;;;8.13;92.69
60871;BME280;46714;50.118;14.462;2022-12-24T09:23:40;98478.56;;;8.15;90.35
60871;BME280;46714;50.118;14.462;2022-12-24T09:26:20;98479.78;;;8.19;91.84
60871;BME280;46714;50.118;14.462;2022-12-24T09:28:47;98487.72;;;8.21;89.95
60871;BME280;46714;50.118;14.462;2022-12-24T09:31:14;98496.03;;;8.26;88.84
60871;BME280;46714;50.118;14.462;2022-12-24T09:33:40;98498.91;;;8.31;88.32
60871;BME280;46714;50.118;14.462;2022-12-24T09:36:07;98508.69;;;8.38;89.57
60871;BME280;46714;50.118;14.462;2022-12-24T09:38:33;98520.59;;;8.37;89.00
60871;BME280;46714;50.118;14.462;2022-12-24T09:41:00;98522.88;;;8.41;88.77
60871;BME280;46714;50.118;14.462;2022-12-24T09:43:27;98518.50;;;8.46;87.46
60871;BME280;46714;50.118;14.462;2022-12-24T09:48:33;98523.44;;;8.56;87.53
60871;BME280;46714;50.118;14.462;2022-12-24T09:51:15;98529.91;;;8.55;87.62
60871;BME280;46714;50.118;14.462;2022-12-24T09:53:59;98534.91;;;8.58;86.40
60871;BME280;46714;50.118;14.462;2022-12-24T09:56:44;98530.72;;;8.62;86.22
60871;BME280;46714;50.118;14.462;2022-12-24T09:59:13;98548.22;;;8.66;86.04
60871;BME280;46714;50.118;14.462;2022-12-24T10:01:41;98545.06;;;8.69;86.65
60871;BME280;46714;50.118;14.462;2022-12-24T10:04:14;98565.13;;;8.68;87.15
60871;BME280;46714;50.118;14.462;2022-12-24T10:09:45;98557.97;;;8.74;85.36
60871;BME280;46714;50.118;14.462;2022-12-24T10:15:11;98561.97;;;8.71;85.14
60871;BME280;46714;50.118;14.462;2022-12-24T10:20:33;98577.09;;;8.86;84.68
60871;BME280;46714;50.118;14.462;2022-12-24T10:23:20;98573.34;;;8.87;85.78
60871;BME280;46714;50.118;14.462;2022-12-24T10:28:40;98573.31;;;8.93;84.47
60871;BME280;46714;50.118;14.462;2022-12-24T10:31:10;98583.09;;;8.94;84.22
60871;BME280;46714;50.118;14.462;2022-12-24T10:33:37;98573.50;;;8.98;83.37
60871;BME280;46714;50.118;14.462;2022-12-24T10:36:07;98574.72;;;9.02;81.79
60871;BME280;46714;50.118;14.462;2022-12-24T10:38:42;98584.69;;;9.09;83.58
60871;BME280;46714;50.118;14.462;2022-12-24T10:41:08;98585.50;;;9.09;83.14
60871;BME280;46714;50.118;14.462;2022-12-24T10:43:34;98589.44;;;9.13;82.11
60871;BME280;46714;50.118;14.462;2022-12-24T10:46:05;98600.94;;;9.15;82.04
60871;BME280;46714;50.118;14.462;2022-12-24T10:48:41;98602.16;;;9.19;83.08
60871;BME280;46714;50.118;14.462;2022-12-24T10:51:12;98599.00;;;9.22;82.28
60871;BME280;46714;50.118;14.462;2022-12-24T10:56:37;98603.09;;;9.32;83.92
60871;BME280;46714;50.118;14.462;2022-12-24T10:59:05;98613.53;;;9.35;82.94
60871;BME280;46714;50.118;14.462;2022-12-24T11:01:44;98610.59;;;9.36;82.75
60871;BME280;46714;50.118;14.462;2022-12-24T11:04:18;98611.81;;;9.40;81.49
60871;BME280;46714;50.118;14.462;2022-12-24T11:09:23;98609.94;;;9.41;83.01
60871;BME280;46714;50.118;14.462;2022-12-24T11:11:48;98607.66;;;9.38;81.57
60871;BME280;46714;50.118;14.462;2022-12-24T11:14:15;98616.25;;;9.35;81.36
60871;BME280;46714;50.118;14.462;2022-12-24T11:16:47;98611.25;;;9.32;82.90
60871;BME280;46714;50.118;14.462;2022-12-24T11:19:29;98622.97;;;9.32;81.70
60871;BME280;46714;50.118;14.462;2022-12-24T11:22:01;98625.91;;;9.31;81.73
60871;BME280;46714;50.118;14.462;2022-12-24T11:24:31;98625.06;;;9.30;81.92
60871;BME280;46714;50.118;14.462;2022-12-24T11:29:48;98643.47;;;9.28;82.92
60871;BME280;46714;50.118;14.462;2022-12-24T11:32:20;98640.97;;;9.27;82.84
60871;BME280;46714;50.118;14.462;2022-12-24T11:34:47;98656.44;;;9.26;83.17
60871;BME280;46714;50.118;14.462;2022-12-24T11:39:39;98658.97;;;9.21;84.73
60871;BME280;46714;50.118;14.462;2022-12-24T11:42:06;98655.03;;;9.17;84.94
60871;BME280;46714;50.118;14.462;2022-12-24T11:44:48;98651.06;;;9.13;86.60
60871;BME280;46714;50.118;14.462;2022-12-24T11:47:14;98656.09;;;9.09;87.09
60871;BME280;46714;50.118;14.462;2022-12-24T11:49:39;98660.31;;;9.05;87.44
60871;BME280;46714;50.118;14.462;2022-12-24T11:54:35;98652.41;;;8.97;88.86
60871;BME280;46714;50.118;14.462;2022-12-24T11:57:09;98655.56;;;8.94;89.25
60871;BME280;46714;50.118;14.462;2022-12-24T11:59:39;98658.28;;;8.94;88.84
60871;BME280;46714;50.118;14.462;2022-12-24T12:04:57;98657.63;;;8.98;90.21
60871;BME280;46714;50.118;14.462;2022-12-24T12:07:25;98656.81;;;8.98;90.19
60871;BME280;46714;50.118;14.462;2022-12-24T12:09:56;98652.22;;;8.98;90.63
60871;BME280;46714;50.118;14.462;2022-12-24T12:12:27;98655.13;;;8.97;90.80
60871;BME280;46714;50.118;14.462;2022-12-24T12:15:05;98650.16;;;8.94;91.61
60871;BME280;46714;50.118;14.462;2022-12-24T12:17:38;98658.50;;;8.92;91.06
60871;BME280;46714;50.118;14.462;2022-12-24T12:25:54;98676.41;;;9.00;90.71
60871;BME280;46714;50.118;14.462;2022-12-24T12:31:54;98675.91;;;9.16;90.26
60871;BME280;46714;50.118;14.462;2022-12-24T12:34:25;98687.16;;;9.20;90.01
60871;BME280;46714;50.118;14.462;2022-12-24T12:37:01;98686.34;;;9.19;90.30
60871;BME280;46714;50.118;14.462;2022-12-24T12:39:34;98690.50;;;9.22;89.87
60871;BME280;46714;50.118;14.462;2022-12-24T12:44:48;98692.13;;;9.30;88.51
60871;BME280;46714;50.118;14.462;2022-12-24T12:50:35;98698.63;;;9.29;87.52
60871;BME280;46714;50.118;14.462;2022-12-24T13:01:33;98695.75;;;9.17;88.36
60871;BME280;46714;50.118;14.462;2022-12-24T13:04:40;98685.53;;;9.12;89.06
60871;BME280;46714;50.118;14.462;2022-12-24T13:07:50;98684.31;;;9.08;88.52
60871;BME280;46714;50.118;14.462;2022-12-24T13:18:46;98700.00;;;8.99;89.23
60871;BME280;46714;50.118;14.462;2022-12-24T13:21:24;98696.91;;;8.96;90.02
60871;BME280;46714;50.118;14.462;2022-12-24T13:24:02;98697.31;;;8.93;89.79
60871;BME280;46714;50.118;14.462;2022-12-24T13:26:29;98695.50;;;8.87;90.81
60871;BME280;46714;50.118;14.462;2022-12-24T13:28:55;98701.56;;;8.82;89.94
60871;BME280;46714;50.118;14.462;2022-12-24T13:34:48;98710.56;;;8.76;91.34
60871;BME280;46714;50.118;14.462;2022-12-24T13:40:43;98715.59;;;8.66;91.58
60871;BME280;46714;50.118;14.462;2022-12-24T13:58:39;98732.50;;;8.61;92.20
60871;BME280;46714;50.118;14.462;2022-12-24T14:01:09;98731.25;;;8.64;92.76
60871;BME280;46714;50.118;14.462;2022-12-24T14:06:08;98727.28;;;8.66;92.31
60871;BME280;46714;50.118;14.462;2022-12-24T14:08:47;98734.38;;;8.67;92.71
60871;BME280;46714;50.118;14.462;2022-12-24T14:11:19;98730.81;;;8.73;92.40
60871;BME280;46714;50.118;14.462;2022-12-24T14:16:24;98736.44;;;8.78;91.95
60871;BME280;46714;50.118;14.462;2022-12-24T14:19:07;98733.28;;;8.81;91.92
60871;BME280;46714;50.118;14.462;2022-12-24T14:21:41;98748.09;;;8.86;90.89
60871;BME280;46714;50.118;14.462;2022-12-24T14:24:14;98749.34;;;8.90;91.17
60871;BME280;46714;50.118;14.462;2022-12-24T14:26:48;98750.16;;;8.90;89.88
60871;BME280;46714;50.118;14.462;2022-12-24T14:29:25;98759.13;;;8.91;90.19
60871;BME280;46714;50.118;14.462;2022-12-24T14:31:56;98758.31;;;8.90;89.70
60871;BME280;46714;50.118;14.462;2022-12-24T14:34:23;98764.56;;;8.91;90.13
60871;BME280;46714;50.118;14.462;2022-12-24T14:36:50;98772.13;;;8.89;90.10
60871;BME280;46714;50.118;14.462;2022-12-24T14:39:28;98769.59;;;8.87;90.48
60871;BME280;46714;50.118;14.462;2022-12-24T14:42:00;98767.91;;;8.86;90.19
60871;BME280;46714;50.118;14.462;2022-12-24T14:52:40;98772.53;;;8.86;89.62
60871;BME280;46714;50.118;14.462;2022-12-24T14:58:36;98772.31;;;8.80;90.14
60871;BME280;46714;50.118;14.462;2022-12-24T15:00:58;98778.19;;;8.77;90.61
60871;BME280;46714;50.118;14.462;2022-12-24T15:03:26;98785.09;;;8.73;91.17
60871;BME280;46714;50.118;14.462;2022-12-24T15:06:12;98783.22;;;8.67;91.88
60871;BME280;46714;50.118;14.462;2022-12-24T15:08:39;98787.81;;;8.60;92.20
60871;BME280;46714;50.118;14.462;2022-12-24T15:11:13;98799.50;;;8.54;92.46
60871;BME280;46714;50.118;14.462;2022-12-24T15:13:43;98793.47;;;8.45;92.63